createdAt,value
2023-04-19T00:00:19.907Z,100.00
2023-04-19T00:02:49.194Z,100.00
2023-04-19T00:05:18.567Z,100.00
2023-04-19T00:07:47.132Z,100.00
2023-04-19T00:10:16.291Z,100.00
2023-04-19T00:12:43.988Z,100.00
2023-04-19T00:15:11.849Z,100.00
2023-04-19T00:17:39.726Z,100.00
2023-04-19T00:20:08.367Z,100.00
2023-04-19T00:22:36.192Z,100.00
2023-04-19T00:25:04.031Z,100.00
2023-04-19T00:27:33.445Z,100.00
2023-04-19T00:30:02.723Z,99.33
2023-04-19T00:32:30.533Z,99.47
2023-04-19T00:34:58.335Z,100.00
2023-04-19T00:37:26.079Z,100.00
2023-04-19T00:39:53.803Z,100.00
2023-04-19T00:42:21.511Z,100.00
2023-04-19T00:44:50.577Z,100.00
2023-04-19T00:47:18.591Z,100.00
2023-04-19T00:49:46.500Z,99.27
2023-04-19T00:52:14.215Z,100.00
2023-04-19T00:54:44.478Z,100.00
2023-04-19T00:57:12.278Z,100.00
2023-04-19T00:59:40.258Z,100.00
2023-04-19T01:02:10.414Z,96.86
2023-04-19T01:04:38.362Z,98.41
2023-04-19T01:07:07.028Z,96.80
2023-04-19T01:09:34.936Z,98.32
2023-04-19T01:12:03.346Z,96.67
2023-04-19T01:14:31.055Z,95.33
2023-04-19T01:16:58.887Z,97.30
2023-04-19T01:19:27.991Z,91.86
2023-04-19T01:21:56.399Z,91.25
2023-04-19T01:24:25.603Z,92.02
2023-04-19T01:26:53.415Z,91.02
2023-04-19T01:29:22.145Z,92.09
2023-04-19T01:31:53.635Z,90.56
2023-04-19T01:34:23.104Z,90.97
2023-04-19T01:36:50.893Z,88.22
2023-04-19T01:39:18.625Z,88.49
2023-04-19T01:41:47.801Z,87.61
2023-04-19T01:44:15.750Z,86.52
2023-04-19T01:46:43.794Z,86.41
2023-04-19T01:49:11.518Z,85.90
2023-04-19T01:51:39.552Z,84.19
2023-04-19T01:54:07.266Z,86.05
2023-04-19T01:56:35.052Z,83.75
2023-04-19T01:59:04.186Z,83.20
2023-04-19T02:01:31.941Z,81.70
2023-04-19T02:04:00.107Z,82.34
2023-04-19T02:06:27.941Z,82.58
2023-04-19T02:08:55.658Z,81.84
2023-04-19T02:11:23.378Z,81.50
2023-04-19T02:13:51.171Z,82.30
2023-04-19T02:16:20.342Z,83.17
2023-04-19T02:18:48.241Z,80.46
2023-04-19T02:21:16.019Z,82.63
2023-04-19T02:23:44.157Z,82.82
2023-04-19T02:26:13.023Z,82.12
2023-04-19T02:28:40.879Z,81.70
2023-04-19T02:31:08.900Z,82.13
2023-04-19T02:33:38.022Z,78.92
2023-04-19T02:36:06.019Z,78.54
2023-04-19T02:38:33.763Z,78.02
2023-04-19T02:41:04.345Z,74.44
2023-04-19T02:43:32.160Z,73.21
2023-04-19T02:45:59.851Z,71.42
2023-04-19T02:48:27.621Z,69.56
2023-04-19T02:50:56.826Z,69.43
2023-04-19T02:53:24.547Z,68.18
2023-04-19T02:55:52.332Z,67.53
2023-04-19T02:58:20.153Z,67.88
2023-04-19T03:00:47.901Z,65.67
2023-04-19T03:03:15.870Z,64.37
2023-04-19T03:05:43.679Z,64.18
2023-04-19T03:08:12.884Z,62.47
2023-04-19T03:10:40.734Z,63.23
2023-04-19T03:13:08.519Z,62.42
2023-04-19T03:15:36.255Z,62.84
2023-04-19T03:18:04.135Z,61.42
2023-04-19T03:20:32.072Z,60.94
2023-04-19T03:22:59.902Z,60.90
2023-04-19T03:25:29.120Z,59.43
2023-04-19T03:27:57.547Z,60.97
2023-04-19T03:30:25.340Z,60.53
2023-04-19T03:32:53.571Z,60.48
2023-04-19T03:35:22.369Z,58.87
2023-04-19T03:37:50.062Z,56.84
2023-04-19T03:40:18.042Z,56.50
2023-04-19T03:42:47.168Z,55.38
2023-04-19T03:45:14.936Z,53.23
2023-04-19T03:47:42.795Z,53.40
2023-04-19T03:50:11.385Z,56.19
2023-04-19T03:52:39.129Z,57.12
2023-04-19T03:55:07.687Z,56.13
2023-04-19T03:57:35.395Z,55.19
2023-04-19T04:00:07.106Z,54.51
2023-04-19T04:02:35.034Z,54.67
2023-04-19T04:05:03.038Z,53.92
2023-04-19T04:07:30.932Z,53.86
2023-04-19T04:09:58.952Z,54.05
2023-04-19T04:12:26.707Z,54.86
2023-04-19T04:14:54.365Z,54.51
2023-04-19T04:17:24.291Z,54.06
2023-04-19T04:19:52.112Z,53.42
2023-04-19T04:22:20.015Z,53.69
2023-04-19T04:24:49.228Z,53.32
2023-04-19T04:27:20.329Z,53.43
2023-04-19T04:29:49.487Z,53.58
2023-04-19T04:32:18.218Z,54.86
2023-04-19T04:34:47.325Z,54.62
2023-04-19T04:37:15.067Z,54.75
2023-04-19T04:39:43.000Z,55.31
2023-04-19T04:42:10.668Z,55.29
2023-04-19T04:44:38.879Z,55.94
2023-04-19T04:47:07.144Z,55.32
2023-04-19T04:49:34.931Z,55.77
2023-04-19T04:52:04.210Z,57.45
2023-04-19T04:54:31.922Z,55.41
2023-04-19T04:57:00.936Z,56.17
2023-04-19T04:59:28.776Z,57.64
2023-04-19T05:01:56.605Z,57.40
2023-04-19T05:04:24.471Z,57.04
2023-04-19T05:06:52.300Z,56.96
2023-04-19T05:09:21.503Z,57.02
2023-04-19T05:11:49.203Z,57.11
2023-04-19T05:14:17.033Z,57.84
2023-04-19T05:16:44.987Z,57.96
2023-04-19T05:19:12.816Z,58.23
2023-04-19T05:21:40.740Z,58.12
2023-04-19T05:24:10.035Z,58.51
2023-04-19T05:26:39.371Z,59.83
2023-04-19T05:29:07.118Z,60.16
2023-04-19T05:31:34.865Z,60.36
2023-04-19T05:34:02.606Z,60.11
2023-04-19T05:36:30.706Z,60.47
2023-04-19T05:38:58.389Z,60.21
2023-04-19T05:41:26.137Z,59.83
2023-04-19T05:43:55.190Z,59.99
2023-04-19T05:46:22.938Z,59.58
2023-04-19T05:48:50.695Z,59.42
2023-04-19T05:51:18.974Z,59.89
2023-04-19T05:53:47.095Z,60.08
2023-04-19T05:56:14.859Z,59.88
2023-04-19T05:58:42.601Z,58.60
2023-04-19T06:01:11.748Z,58.66
2023-04-19T06:03:39.686Z,59.24
2023-04-19T06:06:08.229Z,58.96
2023-04-19T06:08:36.115Z,55.97
2023-04-19T06:11:15.869Z,56.87
2023-04-19T06:13:51.395Z,53.41
2023-04-19T06:16:20.840Z,54.23
2023-04-19T06:18:48.597Z,55.80
2023-04-19T06:21:17.010Z,56.08
2023-04-19T06:23:44.741Z,52.93
2023-04-19T06:26:12.455Z,55.19
2023-04-19T06:28:40.230Z,53.55
2023-04-19T06:31:08.875Z,55.01
2023-04-19T06:33:38.129Z,54.07
2023-04-19T06:36:06.610Z,53.35
2023-04-19T06:38:34.330Z,54.12
2023-04-19T06:41:02.006Z,53.98
2023-04-19T06:43:29.753Z,52.25
2023-04-19T06:45:59.570Z,53.60
2023-04-19T06:48:27.788Z,52.66
2023-04-19T06:50:56.932Z,52.19
2023-04-19T06:53:25.057Z,52.22
2023-04-19T06:55:59.714Z,51.78
2023-04-19T06:58:27.641Z,51.72
2023-04-19T07:00:55.814Z,51.93
2023-04-19T07:03:23.663Z,51.63
2023-04-19T07:05:52.375Z,51.91
2023-04-19T07:08:21.448Z,51.89
2023-04-19T07:10:49.136Z,50.59
2023-04-19T07:13:16.846Z,51.76
2023-04-19T07:15:44.612Z,50.75
2023-04-19T07:18:14.915Z,52.76
2023-04-19T07:20:44.951Z,50.42
2023-04-19T07:23:12.957Z,50.51
2023-04-19T07:25:42.050Z,50.41
2023-04-19T07:28:09.819Z,49.98
2023-04-19T07:30:37.840Z,48.75
2023-04-19T07:33:05.957Z,48.52
2023-04-19T07:35:33.828Z,48.44
2023-04-19T07:38:01.849Z,48.21
2023-04-19T07:40:29.651Z,49.25
2023-04-19T07:42:58.792Z,48.09
2023-04-19T07:45:26.544Z,46.81
2023-04-19T07:47:54.215Z,47.78
2023-04-19T07:50:23.242Z,47.67
2023-04-19T07:52:51.155Z,46.32
2023-04-19T07:55:18.953Z,47.29
2023-04-19T07:57:48.435Z,47.05
2023-04-19T08:00:18.618Z,45.80
2023-04-19T08:02:47.022Z,44.71
2023-04-19T08:05:17.065Z,43.75
2023-04-19T08:07:44.960Z,42.73
2023-04-19T08:10:13.122Z,41.91
2023-04-19T08:12:50.662Z,41.73
2023-04-19T08:18:01.712Z,42.05
2023-04-19T08:20:29.498Z,41.81
2023-04-19T08:22:59.074Z,41.97
2023-04-19T08:25:28.672Z,41.68
2023-04-19T08:27:57.419Z,41.61
2023-04-19T08:30:25.307Z,41.31
2023-04-19T08:32:56.836Z,40.43
2023-04-19T08:35:25.320Z,41.29
2023-04-19T08:37:53.143Z,38.96
2023-04-19T08:40:20.967Z,39.54
2023-04-19T08:42:48.734Z,39.37
2023-04-19T08:45:27.816Z,39.58
2023-04-19T08:48:01.216Z,39.50
2023-04-19T08:53:09.046Z,39.96
2023-04-19T08:58:30.707Z,39.42
2023-04-19T09:01:06.239Z,38.75
2023-04-19T09:03:44.178Z,37.31
2023-04-19T09:06:19.298Z,37.03
2023-04-19T09:08:47.223Z,35.89
2023-04-19T09:11:14.952Z,34.85
2023-04-19T09:13:44.536Z,35.51
2023-04-19T09:16:24.786Z,35.70
2023-04-19T09:19:08.540Z,34.73
2023-04-19T09:21:47.830Z,35.04
2023-04-19T09:24:15.733Z,34.90
2023-04-19T09:26:55.007Z,34.39
2023-04-19T09:29:22.903Z,34.72
2023-04-19T09:31:58.337Z,35.13
2023-04-19T09:34:28.835Z,36.31
2023-04-19T09:37:04.757Z,35.68
2023-04-19T09:39:39.564Z,34.23
2023-04-19T09:42:07.432Z,33.89
2023-04-19T09:47:23.299Z,34.06
2023-04-19T09:50:18.759Z,34.13
2023-04-19T09:52:50.685Z,34.12
2023-04-19T09:57:49.797Z,33.15
2023-04-19T10:00:17.988Z,32.01
2023-04-19T10:02:48.780Z,32.87
2023-04-19T10:07:25.157Z,32.81
2023-04-19T10:12:45.546Z,32.77
2023-04-19T10:15:07.860Z,34.63
2023-04-19T10:17:36.039Z,34.76
2023-04-19T10:20:08.204Z,35.42
2023-04-19T10:22:38.762Z,34.51
2023-04-19T10:25:11.043Z,36.00
2023-04-19T10:27:38.816Z,35.41
2023-04-19T10:30:12.677Z,35.81
2023-04-19T10:32:41.709Z,35.00
2023-04-19T10:35:10.238Z,35.76
2023-04-19T10:37:42.852Z,33.60
2023-04-19T10:40:12.361Z,33.82
2023-04-19T10:43:16.520Z,31.56
2023-04-19T10:45:44.657Z,30.51
2023-04-19T10:48:34.156Z,31.00
2023-04-19T10:51:03.225Z,30.62
2023-04-19T10:53:51.804Z,31.32
2023-04-19T10:56:21.010Z,30.97
2023-04-19T10:59:22.871Z,32.19
2023-04-19T11:01:53.211Z,32.24
2023-04-19T11:04:27.446Z,29.99
2023-04-19T11:07:03.604Z,30.08
2023-04-19T11:09:35.255Z,29.35
2023-04-19T11:12:05.444Z,29.04
2023-04-19T11:14:36.258Z,28.67
2023-04-19T11:17:06.262Z,27.83
2023-04-19T11:19:34.059Z,27.50
2023-04-19T11:22:01.753Z,27.23
2023-04-19T11:24:29.498Z,28.37
2023-04-19T11:26:58.974Z,28.41
2023-04-19T11:29:26.734Z,27.84
2023-04-19T11:31:54.507Z,28.52
2023-04-19T11:34:24.422Z,28.72
2023-04-19T11:36:53.171Z,27.58
2023-04-19T11:39:21.530Z,27.02
2023-04-19T11:41:49.261Z,28.23
2023-04-19T11:44:20.921Z,28.93
2023-04-19T11:47:05.131Z,29.03
2023-04-19T11:49:34.040Z,29.50
2023-04-19T11:52:05.596Z,29.19
2023-04-19T11:54:34.458Z,30.71
2023-04-19T11:57:04.469Z,30.49
2023-04-19T11:59:34.676Z,30.58
2023-04-19T12:02:09.741Z,32.40
2023-04-19T12:04:38.713Z,32.40
2023-04-19T12:07:07.418Z,32.67
2023-04-19T12:09:36.890Z,32.62
2023-04-19T12:12:05.035Z,31.94
2023-04-19T12:14:34.342Z,33.52
2023-04-19T12:17:09.916Z,33.85
2023-04-19T12:19:38.720Z,33.03
2023-04-19T12:22:10.718Z,33.64
2023-04-19T12:24:38.916Z,33.96
2023-04-19T12:27:07.120Z,33.12
2023-04-19T12:29:36.696Z,32.91
2023-04-19T12:32:05.145Z,32.28
2023-04-19T12:34:32.904Z,32.27
2023-04-19T12:37:00.900Z,32.30
2023-04-19T12:39:29.305Z,32.14
2023-04-19T12:41:57.274Z,32.10
2023-04-19T12:44:25.029Z,31.78
2023-04-19T12:46:57.451Z,32.39
2023-04-19T12:49:25.458Z,32.88
2023-04-19T12:51:54.651Z,33.16
2023-04-19T12:54:24.359Z,33.14
2023-04-19T12:56:52.444Z,31.48
2023-04-19T12:59:20.375Z,31.83
2023-04-19T13:01:48.168Z,31.48
2023-04-19T13:04:17.674Z,32.30
2023-04-19T13:06:45.907Z,31.62
2023-04-19T13:09:15.034Z,32.98
2023-04-19T13:11:43.056Z,32.70
2023-04-19T13:14:10.811Z,32.86
2023-04-19T13:16:38.478Z,32.12
2023-04-19T13:19:06.374Z,32.70
2023-04-19T13:21:35.430Z,32.92
2023-04-19T13:24:03.209Z,33.51
2023-04-19T13:26:31.095Z,32.73
2023-04-19T13:28:58.784Z,32.98
2023-04-19T13:31:26.990Z,32.76
2023-04-19T13:33:55.070Z,32.57
2023-04-19T13:36:22.977Z,32.40
2023-04-19T13:38:52.021Z,33.27
2023-04-19T13:41:19.800Z,33.27
2023-04-19T13:43:47.840Z,33.80
2023-04-19T13:46:15.725Z,33.63
2023-04-19T13:48:43.404Z,33.13
2023-04-19T13:51:11.140Z,33.32
2023-04-19T13:53:40.780Z,33.45
2023-04-19T13:56:10.840Z,33.22
2023-04-19T13:58:38.771Z,33.10
2023-04-19T14:01:06.796Z,33.74
2023-04-19T14:03:34.824Z,33.48
2023-04-19T14:06:02.779Z,33.39
2023-04-19T14:08:30.469Z,33.35
2023-04-19T14:10:58.219Z,32.62
2023-04-19T14:13:27.992Z,32.17
2023-04-19T14:15:55.697Z,32.64
2023-04-19T14:18:23.412Z,31.67
2023-04-19T14:20:51.109Z,32.40
2023-04-19T14:23:18.873Z,32.96
2023-04-19T14:25:46.621Z,32.76
2023-04-19T14:28:14.409Z,32.69
2023-04-19T14:30:43.471Z,32.93
2023-04-19T14:33:11.391Z,32.07
2023-04-19T14:35:39.224Z,32.56
2023-04-19T14:38:06.879Z,32.62
2023-04-19T14:40:34.795Z,33.00
2023-04-19T14:43:02.572Z,32.47
2023-04-19T14:45:30.399Z,33.07
2023-04-19T14:47:59.581Z,32.89
2023-04-19T14:50:27.424Z,32.74
2023-04-19T14:52:55.209Z,32.41
2023-04-19T14:55:24.973Z,33.00
2023-04-19T14:57:52.682Z,32.74
2023-04-19T15:00:20.884Z,33.01
2023-04-19T15:02:48.713Z,32.62
2023-04-19T15:05:18.005Z,33.16
2023-04-19T15:07:45.813Z,32.58
2023-04-19T15:10:13.855Z,32.30
2023-04-19T15:12:41.512Z,32.35
2023-04-19T15:15:09.920Z,32.10
2023-04-19T15:17:37.769Z,32.67
2023-04-19T15:20:06.619Z,33.12
2023-04-19T15:22:35.837Z,33.13
2023-04-19T15:25:03.569Z,32.97
2023-04-19T15:27:31.395Z,33.01
2023-04-19T15:29:59.363Z,31.48
2023-04-19T15:32:29.029Z,32.26
2023-04-19T15:34:56.813Z,31.36
2023-04-19T15:37:24.584Z,31.63
2023-04-19T15:39:53.720Z,31.48
2023-04-19T15:42:21.483Z,31.89
2023-04-19T15:44:49.272Z,32.01
2023-04-19T15:47:17.298Z,32.41
2023-04-19T15:49:47.342Z,32.93
2023-04-19T15:52:15.257Z,32.50
2023-04-19T15:54:42.973Z,31.60
2023-04-19T15:57:12.084Z,30.73
2023-04-19T15:59:39.807Z,30.85
2023-04-19T16:02:08.046Z,30.36
2023-04-19T16:04:37.009Z,30.55
2023-04-19T16:07:04.949Z,30.77
2023-04-19T16:09:32.695Z,30.50
2023-04-19T16:12:00.843Z,30.25
2023-04-19T16:14:29.916Z,30.34
2023-04-19T16:16:57.903Z,30.29
2023-04-19T16:19:25.842Z,29.60
2023-04-19T16:21:53.588Z,29.16
2023-04-19T16:24:21.320Z,28.95
2023-04-19T16:26:49.121Z,30.03
2023-04-19T16:29:17.118Z,30.11
2023-04-19T16:31:47.573Z,30.00
2023-04-19T16:34:16.724Z,30.21
2023-04-19T16:36:45.547Z,30.45
2023-04-19T16:39:13.506Z,30.90
2023-04-19T16:41:41.257Z,30.95
2023-04-19T16:44:08.983Z,29.76
2023-04-19T16:46:36.835Z,30.32
2023-04-19T16:49:06.016Z,30.04
2023-04-19T16:51:33.762Z,29.85
2023-04-19T16:54:01.407Z,29.68
2023-04-19T16:56:29.159Z,28.95
2023-04-19T16:58:56.863Z,29.11
2023-04-19T17:01:24.918Z,28.50
2023-04-19T17:03:52.966Z,28.56
2023-04-19T17:06:22.115Z,29.22
2023-04-19T17:08:49.792Z,29.08
2023-04-19T17:11:17.499Z,29.76
2023-04-19T17:13:45.249Z,29.55
2023-04-19T17:16:13.047Z,29.57
2023-04-19T17:18:41.016Z,29.49
2023-04-19T17:21:08.858Z,29.27
2023-04-19T17:23:37.960Z,29.00
2023-04-19T17:26:06.010Z,28.82
2023-04-19T17:28:33.756Z,28.73
2023-04-19T17:31:01.622Z,28.90
2023-04-19T17:33:29.370Z,29.13
2023-04-19T17:35:57.158Z,28.70
2023-04-19T17:38:24.930Z,28.71
2023-04-19T17:40:54.033Z,29.26
2023-04-19T17:43:21.878Z,28.95
2023-04-19T17:45:49.532Z,29.44
2023-04-19T17:48:17.268Z,29.42
2023-04-19T17:50:45.018Z,29.63
2023-04-19T17:53:12.856Z,29.88
2023-04-19T17:55:40.729Z,30.30
2023-04-19T17:58:09.837Z,30.01
2023-04-19T18:00:37.687Z,29.79
2023-04-19T18:03:07.032Z,30.06
2023-04-19T18:05:34.794Z,30.08
2023-04-19T18:08:02.463Z,29.62
2023-04-19T18:10:30.547Z,29.51
2023-04-19T18:12:58.404Z,29.77
2023-04-19T18:15:27.420Z,29.62
2023-04-19T18:17:55.175Z,30.29
2023-04-19T18:20:22.954Z,30.88
2023-04-19T18:22:51.071Z,30.65
2023-04-19T18:25:19.224Z,30.73
2023-04-19T18:27:46.964Z,31.03
2023-04-19T18:30:14.972Z,30.92
2023-04-19T18:32:44.093Z,30.66
2023-04-19T18:35:12.386Z,30.47
2023-04-19T18:37:40.185Z,30.43
2023-04-19T18:40:09.196Z,30.31
2023-04-19T18:42:36.952Z,29.96
2023-04-19T18:45:05.193Z,31.09
2023-04-19T18:47:32.911Z,30.82
2023-04-19T18:50:05.232Z,31.18
2023-04-19T18:52:35.373Z,31.30
2023-04-19T18:55:03.373Z,32.17
2023-04-19T18:57:34.679Z,32.22
2023-04-19T19:00:05.448Z,32.34
2023-04-19T19:02:36.081Z,32.00
2023-04-19T19:05:07.363Z,31.74
2023-04-19T19:07:37.105Z,31.52
2023-04-19T19:10:15.946Z,31.59
2023-04-19T19:12:46.908Z,31.87
2023-04-19T19:15:15.018Z,31.60
2023-04-19T19:17:43.227Z,31.98
2023-04-19T19:20:13.203Z,32.03
2023-04-19T19:22:40.896Z,31.81
2023-04-19T19:25:09.225Z,32.32
2023-04-19T19:27:37.709Z,32.53
2023-04-19T19:30:07.682Z,31.82
2023-04-19T19:32:35.584Z,31.68
2023-04-19T19:35:06.426Z,32.00
2023-04-19T19:37:37.490Z,31.72
2023-04-19T19:40:07.281Z,31.75
2023-04-19T19:42:35.488Z,32.02
2023-04-19T19:45:04.172Z,31.70
2023-04-19T19:47:35.159Z,31.65
2023-04-19T19:52:35.960Z,31.16
2023-04-19T19:55:05.464Z,31.15
2023-04-19T20:00:23.004Z,31.26
2023-04-19T20:02:55.931Z,30.89
2023-04-19T20:05:24.627Z,31.30
2023-04-19T20:08:02.078Z,30.99
2023-04-19T20:10:34.238Z,31.57
2023-04-19T20:13:02.340Z,31.03
2023-04-19T20:15:31.011Z,32.00
2023-04-19T20:17:58.773Z,32.25
2023-04-19T20:20:26.619Z,31.97
2023-04-19T20:22:54.263Z,31.84
2023-04-19T20:25:22.068Z,31.86
2023-04-19T20:27:51.133Z,31.98
2023-04-19T20:30:18.913Z,32.24
2023-04-19T20:32:48.440Z,32.64
2023-04-19T20:35:16.270Z,32.60
2023-04-19T20:37:44.449Z,32.56
2023-04-19T20:40:14.530Z,33.29
2023-04-19T20:42:43.376Z,33.09
2023-04-19T20:45:14.286Z,33.20
2023-04-19T20:47:42.850Z,33.55
2023-04-19T20:50:11.314Z,33.85
2023-04-19T20:52:39.198Z,34.52
2023-04-19T20:55:07.999Z,34.02
2023-04-19T20:57:35.897Z,34.20
2023-04-19T21:00:04.823Z,34.80
2023-04-19T21:02:34.077Z,35.24
2023-04-19T21:05:01.899Z,34.70
2023-04-19T21:07:29.630Z,34.85
2023-04-19T21:09:57.340Z,35.72
2023-04-19T21:12:25.125Z,35.12
2023-04-19T21:14:53.544Z,35.24
2023-04-19T21:17:21.680Z,35.22
2023-04-19T21:19:50.807Z,35.70
2023-04-19T21:22:18.613Z,36.09
2023-04-19T21:24:46.402Z,35.71
2023-04-19T21:27:14.116Z,35.92
2023-04-19T21:29:41.838Z,36.67
2023-04-19T21:32:09.609Z,36.44
2023-04-19T21:34:38.298Z,36.68
2023-04-19T21:37:07.489Z,36.37
2023-04-19T21:39:35.180Z,37.01
2023-04-19T21:42:02.889Z,37.05
2023-04-19T21:44:30.613Z,37.26
2023-04-19T21:46:58.394Z,37.13
2023-04-19T21:49:26.214Z,37.93
2023-04-19T21:51:53.958Z,37.89
2023-04-19T21:54:32.815Z,38.47
2023-04-19T21:57:01.888Z,38.33
2023-04-19T21:59:29.702Z,38.34
2023-04-19T22:01:57.522Z,38.30
2023-04-19T22:04:25.321Z,38.90
2023-04-19T22:06:53.884Z,38.77
2023-04-19T22:09:22.907Z,38.43
2023-04-19T22:11:51.260Z,38.55
2023-04-19T22:14:18.928Z,38.82
2023-04-19T22:16:48.505Z,39.30
2023-04-19T22:19:16.865Z,39.13
2023-04-19T22:21:44.712Z,39.90
2023-04-19T22:24:12.453Z,39.46
2023-04-19T22:26:41.543Z,38.50
2023-04-19T22:29:09.377Z,39.52
2023-04-19T22:31:37.050Z,38.94
2023-04-19T22:34:04.866Z,38.32
2023-04-19T22:36:33.015Z,39.79
2023-04-19T22:39:00.730Z,39.00
2023-04-19T22:41:28.456Z,38.53
2023-04-19T22:43:57.539Z,39.45
2023-04-19T22:46:25.250Z,39.51
2023-04-19T22:48:52.934Z,39.41
2023-04-19T22:51:20.687Z,39.96
2023-04-19T22:53:48.367Z,40.10
2023-04-19T22:56:17.746Z,39.98
2023-04-19T22:58:45.589Z,40.31
2023-04-19T23:01:14.684Z,41.41
2023-04-19T23:03:42.422Z,41.64
2023-04-19T23:06:10.122Z,41.40
2023-04-19T23:08:40.309Z,41.10
2023-04-19T23:11:10.050Z,42.62
2023-04-19T23:13:38.125Z,41.95
2023-04-19T23:16:06.563Z,42.33
2023-04-19T23:18:36.157Z,41.80
2023-04-19T23:21:04.290Z,42.32
2023-04-19T23:23:31.936Z,42.68
2023-04-19T23:25:59.653Z,43.87
2023-04-19T23:28:27.391Z,43.36
2023-04-19T23:30:55.206Z,43.76
2023-04-19T23:33:22.917Z,44.19
2023-04-19T23:35:52.048Z,44.84
2023-04-19T23:38:20.320Z,44.59
2023-04-19T23:40:48.073Z,45.03
2023-04-19T23:43:15.803Z,45.02
2023-04-19T23:45:43.515Z,44.60
2023-04-19T23:48:11.297Z,44.99
2023-04-19T23:50:38.995Z,44.62
2023-04-19T23:53:08.141Z,45.02
2023-04-19T23:55:35.800Z,45.45
2023-04-19T23:58:03.555Z,46.30
